الصفحة الرئيسية
METAR-TAF:

METAR-TAF

مطار :

مطار الصويرة موكادور

الصويرة, المغرب

دائرة عرض: 31-31N, خط طول: 009-47W, ارتفاع: 15 متر

مراقبة الطقس الحالي

تاريخ ووقت الإصدار 8ساعات و 0 دقيقة قبل الساعة 18:00UTC
ريح 6 عقدة من الغرب/الجنوب الغربي
درجة الحرارة 15°درجة مئوية
الرطوبة 67%
ضغط 1016 hPa
الرؤية: 8000 متر
غيوم قليلة على ارتفاع 2000 قدم

METAR: GMMI 221800Z 24006KT 8000 FEW020 15/09 Q1016 NOSIG

زمن: 03:00 (02:00 UTC)

توقعات

تاريخ ووقت الإصدار 3ساعات و 0 دقيقة قبل الساعة 23:00UTC
التوقعات صالحة من23 الساعة 00 UTC إلى 24 الساعة 06 UTC
ريح 7 عقدة من الغرب/الجنوب الغربي
الرؤية: 8000 متر
غيوم قليلة على ارتفاع 2000 قدم
نظرية الاحتمالات 30% :
مؤقت
من 23 الساعة 06 UTC إلى 23 الساعة 14 UTC
الرؤية: 6000 متر
غيوم متفرقة على ارتفاع 1000 قدم
غيوم مفككة على ارتفاع 5000 قدم
مطر خفيف
نظرية الاحتمالات 30% :
مؤقت
من 23 الساعة 12 UTC إلى 23 الساعة 18 UTC
ريح 12 عقدة من الجنوب/الجنوب الغربي تتزايد حتى 28 عقدة

TAF: GMMI 222300Z 2300/2406 25007KT 8000 FEW020 PROB30 TEMPO 2306/2314 6000 -RA SCT010 BKN050 PROB30 TEMPO 2312/2318 21012G28KT

أرصاد الطقس والتوقعات من أكثر من 4000 مطار (تقارير الطقس للمطار METAR والتنبؤ بالطقس بالمطارTAF).

المحطات المتاحة هي النقط الصفراء والحمراء على الخريطة.

حرك المؤشر فوق النقطة لمعرفة اسم المحطة.

ثم انقر لمعرفة أرصاد وتوقعات الطقس.

لتغيير الخارطة: اضغط على الأزرار الخضراء مع رمز الصليب الأسود للتكبير. على الزر الأخضر مع شرطة للتصغير، أو على الأسهم الخضراء للخرائط المجاورة.


METAR-TAF: